createdAt,value
2018-05-02T00:00:33.196Z,11.25
2018-05-02T00:01:33.622Z,11.23
2018-05-02T00:02:34.146Z,11.19
2018-05-02T00:03:34.490Z,11.27
2018-05-02T00:04:34.907Z,11.27
2018-05-02T00:05:35.370Z,11.22
2018-05-02T00:06:35.770Z,11.18
2018-05-02T00:07:36.196Z,11.14
2018-05-02T00:08:36.620Z,11.15
2018-05-02T00:09:37.050Z,11.18
2018-05-02T00:10:37.485Z,11.12
2018-05-02T00:11:37.909Z,11.26
2018-05-02T00:12:38.345Z,11.27
2018-05-02T00:13:38.764Z,11.25
2018-05-02T00:14:39.193Z,11.22
2018-05-02T00:15:39.622Z,11.32
2018-05-02T00:16:40.050Z,11.30
2018-05-02T00:17:40.478Z,11.19
2018-05-02T00:18:40.905Z,11.22
2018-05-02T00:19:41.338Z,11.18
2018-05-02T00:20:41.762Z,11.17
2018-05-02T00:21:42.193Z,11.14
2018-05-02T00:22:42.619Z,11.10
2018-05-02T00:23:43.102Z,11.04
2018-05-02T00:24:43.479Z,10.96
2018-05-02T00:25:43.906Z,10.94
2018-05-02T00:26:44.339Z,10.76
2018-05-02T00:27:44.761Z,10.82
2018-05-02T00:28:45.190Z,10.81
2018-05-02T00:29:45.625Z,10.79
2018-05-02T00:30:46.045Z,10.68
2018-05-02T00:31:46.473Z,10.78
2018-05-02T00:32:46.902Z,10.69
2018-05-02T00:33:47.328Z,10.72
2018-05-02T00:34:47.756Z,10.64
2018-05-02T00:35:48.182Z,10.71
2018-05-02T00:36:48.611Z,10.67
2018-05-02T00:37:49.042Z,10.67
2018-05-02T00:38:49.475Z,10.49
2018-05-02T00:39:49.895Z,10.57
2018-05-02T00:40:50.346Z,10.68
2018-05-02T00:41:50.753Z,10.57
2018-05-02T00:42:51.175Z,10.67
2018-05-02T00:43:51.608Z,10.63
2018-05-02T00:44:52.041Z,10.67
2018-05-02T00:45:52.463Z,10.64
2018-05-02T00:46:52.927Z,10.56
2018-05-02T00:47:53.321Z,10.57
2018-05-02T00:48:53.748Z,10.59
2018-05-02T00:49:54.175Z,10.60
2018-05-02T00:50:54.606Z,10.63
2018-05-02T00:51:55.035Z,10.64
2018-05-02T00:52:55.458Z,10.67
2018-05-02T00:53:55.887Z,10.61
2018-05-02T00:54:56.313Z,10.60
2018-05-02T00:55:56.751Z,10.48
2018-05-02T00:56:57.175Z,10.41
2018-05-02T00:57:57.598Z,10.35
2018-05-02T00:58:58.023Z,10.35
2018-05-02T00:59:58.459Z,10.48
2018-05-02T01:00:58.891Z,10.38
2018-05-02T01:01:59.309Z,10.38
2018-05-02T01:02:59.738Z,10.38
2018-05-02T01:04:00.171Z,10.38
2018-05-02T01:05:00.603Z,10.37
2018-05-02T01:06:01.021Z,10.40
2018-05-02T01:07:01.481Z,10.38
2018-05-02T01:08:01.871Z,10.48
2018-05-02T01:09:02.308Z,10.40
2018-05-02T01:10:02.729Z,10.41
2018-05-02T01:11:03.157Z,10.37
2018-05-02T01:12:03.586Z,10.40
2018-05-02T01:13:04.015Z,10.35
2018-05-02T01:14:04.440Z,10.35
2018-05-02T01:15:04.870Z,10.40
2018-05-02T01:16:05.296Z,10.40
2018-05-02T01:17:05.735Z,10.41
2018-05-02T01:18:06.153Z,10.41
2018-05-02T01:19:06.582Z,10.38
2018-05-02T01:20:07.031Z,10.41
2018-05-02T01:21:07.440Z,10.30
2018-05-02T01:22:07.863Z,10.33
2018-05-02T01:23:08.301Z,10.33
2018-05-02T01:24:08.723Z,10.25
2018-05-02T01:25:09.153Z,10.30
2018-05-02T01:26:09.569Z,10.35
2018-05-02T01:27:10.007Z,10.26
2018-05-02T01:28:10.427Z,10.25
2018-05-02T01:29:10.854Z,10.30
2018-05-02T01:30:11.284Z,10.20
2018-05-02T01:31:11.710Z,10.20
2018-05-02T01:32:12.141Z,10.25
2018-05-02T01:33:12.564Z,10.16
2018-05-02T01:34:12.992Z,10.15
2018-05-02T01:35:13.420Z,10.12
2018-05-02T01:36:13.927Z,10.07
2018-05-02T01:37:14.270Z,10.12
2018-05-02T01:38:14.700Z,9.95
2018-05-02T01:39:15.129Z,10.07
2018-05-02T01:40:15.557Z,10.02
2018-05-02T01:41:15.992Z,10.09
2018-05-02T01:42:16.410Z,10.09
2018-05-02T01:43:16.845Z,10.13
2018-05-02T01:44:17.264Z,10.09
2018-05-02T01:45:17.698Z,10.13
2018-05-02T01:46:18.121Z,10.12
2018-05-02T01:47:18.547Z,10.12
2018-05-02T01:48:18.981Z,10.09
2018-05-02T01:49:19.405Z,10.09
2018-05-02T01:50:19.837Z,10.07
2018-05-02T01:51:20.260Z,10.12
2018-05-02T01:52:20.696Z,10.12
2018-05-02T01:53:21.130Z,10.10
2018-05-02T01:54:21.544Z,10.13
2018-05-02T01:55:21.967Z,10.09
2018-05-02T01:56:22.394Z,10.09
2018-05-02T01:57:22.822Z,9.95
2018-05-02T01:58:23.251Z,10.04
2018-05-02T01:59:23.676Z,10.05
2018-05-02T02:00:24.124Z,9.99
2018-05-02T02:01:24.536Z,9.98
2018-05-02T02:02:24.963Z,10.01
2018-05-02T02:03:25.389Z,9.98
2018-05-02T02:04:25.816Z,9.99
2018-05-02T02:05:26.242Z,10.04
2018-05-02T02:06:26.668Z,9.86
2018-05-02T02:07:27.100Z,9.84
2018-05-02T02:08:27.548Z,9.91
2018-05-02T02:09:27.956Z,9.82
2018-05-02T02:10:28.376Z,9.61
2018-05-02T02:11:28.820Z,9.74
2018-05-02T02:12:29.240Z,9.65
2018-05-02T02:13:29.659Z,9.61
2018-05-02T02:14:30.087Z,9.55
2018-05-02T02:15:30.514Z,9.55
2018-05-02T02:16:30.941Z,9.59
2018-05-02T02:17:31.364Z,9.64
2018-05-02T02:18:31.812Z,9.58
2018-05-02T02:19:32.222Z,9.48
2018-05-02T02:20:32.656Z,9.51
2018-05-02T02:21:33.079Z,9.37
2018-05-02T02:22:33.506Z,9.28
2018-05-02T02:23:33.943Z,9.37
2018-05-02T02:24:34.359Z,9.44
2018-05-02T02:25:34.862Z,9.34
2018-05-02T02:26:35.218Z,9.28
2018-05-02T02:27:35.639Z,9.31
2018-05-02T02:28:36.066Z,9.28
2018-05-02T02:29:36.508Z,9.25
2018-05-02T02:30:36.919Z,9.21
2018-05-02T02:31:37.350Z,9.22
2018-05-02T02:32:37.772Z,9.21
2018-05-02T02:33:38.202Z,9.21
2018-05-02T02:34:38.633Z,9.18
2018-05-02T02:35:39.050Z,9.22
2018-05-02T02:36:39.481Z,9.14
2018-05-02T02:37:39.907Z,9.08
2018-05-02T02:38:40.333Z,9.04
2018-05-02T02:39:40.760Z,9.03
2018-05-02T02:40:41.188Z,9.06
2018-05-02T02:41:41.620Z,9.13
2018-05-02T02:42:42.040Z,9.00
2018-05-02T02:43:42.480Z,9.10
2018-05-02T02:44:42.893Z,9.06
2018-05-02T02:45:43.322Z,9.03
2018-05-02T02:46:43.747Z,9.06
2018-05-02T02:47:44.169Z,9.06
2018-05-02T02:48:44.600Z,9.10
2018-05-02T02:49:45.026Z,9.03
2018-05-02T02:50:45.455Z,9.03
2018-05-02T02:51:45.879Z,9.08
2018-05-02T02:52:46.306Z,9.04
2018-05-02T02:53:46.726Z,9.04
2018-05-02T02:54:47.163Z,9.02
2018-05-02T02:55:47.587Z,9.10
2018-05-02T02:56:48.010Z,9.18
2018-05-02T02:57:48.438Z,9.10
2018-05-02T02:58:48.867Z,9.22
2018-05-02T02:59:49.286Z,9.22
2018-05-02T03:00:49.760Z,9.03
2018-05-02T03:01:50.142Z,9.16
2018-05-02T03:02:50.573Z,8.95
2018-05-02T03:03:50.999Z,9.08
2018-05-02T03:04:51.422Z,9.03
2018-05-02T03:05:51.852Z,9.00
2018-05-02T03:06:52.278Z,9.00
2018-05-02T03:07:52.702Z,8.99
2018-05-02T03:08:53.148Z,9.08
2018-05-02T03:09:53.572Z,9.04
2018-05-02T03:10:53.982Z,9.04
2018-05-02T03:11:54.405Z,9.03
2018-05-02T03:12:54.832Z,9.08
2018-05-02T03:13:55.263Z,9.03
2018-05-02T03:14:55.688Z,9.03
2018-05-02T03:15:56.131Z,9.13
2018-05-02T03:16:56.542Z,9.06
2018-05-02T03:17:56.973Z,9.06
2018-05-02T03:18:57.395Z,9.04
2018-05-02T03:19:57.819Z,9.04
2018-05-02T03:20:58.243Z,9.04
2018-05-02T03:21:58.679Z,9.03
2018-05-02T03:22:59.097Z,9.08
2018-05-02T03:23:59.524Z,9.11
2018-05-02T03:24:59.951Z,9.16
2018-05-02T03:26:00.395Z,9.16
2018-05-02T03:27:00.810Z,9.19
2018-05-02T03:28:01.238Z,9.19
2018-05-02T03:29:01.657Z,9.14
2018-05-02T03:30:02.081Z,9.34
2018-05-02T03:31:02.511Z,9.29
2018-05-02T03:32:02.934Z,9.29
2018-05-02T03:33:03.361Z,9.25
2018-05-02T03:34:03.791Z,9.19
2018-05-02T03:35:04.215Z,9.13
2018-05-02T03:36:04.639Z,9.21
2018-05-02T03:37:05.069Z,9.21
2018-05-02T03:38:05.497Z,9.34
2018-05-02T03:39:05.923Z,9.21
2018-05-02T03:40:06.349Z,9.19
2018-05-02T03:41:06.793Z,9.19
2018-05-02T03:42:07.211Z,9.16
2018-05-02T03:43:07.672Z,9.04
2018-05-02T03:44:08.062Z,9.02
2018-05-02T03:45:08.481Z,8.99
2018-05-02T03:46:08.906Z,9.08
2018-05-02T03:47:09.342Z,8.94
2018-05-02T03:48:09.761Z,8.97
2018-05-02T03:49:10.183Z,8.91
2018-05-02T03:50:10.617Z,8.99
2018-05-02T03:51:11.033Z,8.89
2018-05-02T03:52:11.470Z,8.99
2018-05-02T03:53:11.892Z,8.99
2018-05-02T03:54:12.332Z,9.04
2018-05-02T03:55:12.749Z,9.08
2018-05-02T03:56:13.174Z,9.08
2018-05-02T03:57:13.622Z,9.13
2018-05-02T03:58:14.044Z,9.00
2018-05-02T03:59:14.449Z,9.06
2018-05-02T04:00:14.874Z,9.03
2018-05-02T04:01:15.307Z,8.95
2018-05-02T04:02:15.760Z,8.97
2018-05-02T04:03:16.157Z,9.03
2018-05-02T04:04:16.584Z,9.02
2018-05-02T04:05:17.012Z,9.04
2018-05-02T04:06:17.433Z,9.06
2018-05-02T04:07:17.871Z,9.18
2018-05-02T04:08:18.297Z,9.14
2018-05-02T04:09:18.714Z,9.23
2018-05-02T04:10:19.140Z,9.19
2018-05-02T04:11:19.593Z,9.16
2018-05-02T04:12:20.002Z,9.06
2018-05-02T04:13:20.423Z,9.04
2018-05-02T04:14:20.847Z,9.03
2018-05-02T04:15:21.273Z,9.04
2018-05-02T04:16:21.700Z,9.03
2018-05-02T04:17:22.128Z,9.11
2018-05-02T04:18:22.559Z,9.08
2018-05-02T04:19:22.984Z,9.18
2018-05-02T04:20:23.410Z,9.06
2018-05-02T04:21:23.830Z,9.02
2018-05-02T04:22:24.260Z,9.11
2018-05-02T04:23:24.688Z,9.18
2018-05-02T04:24:25.113Z,9.21
2018-05-02T04:25:25.547Z,9.21
2018-05-02T04:26:25.967Z,9.23
2018-05-02T04:27:26.392Z,9.22
2018-05-02T04:28:26.830Z,9.25
2018-05-02T04:29:27.247Z,9.25
2018-05-02T04:30:27.711Z,9.31
2018-05-02T04:31:28.112Z,9.39
2018-05-02T04:32:28.524Z,9.31
2018-05-02T04:33:28.955Z,9.37
2018-05-02T04:34:29.387Z,9.46
2018-05-02T04:35:29.807Z,9.48
2018-05-02T04:36:30.347Z,9.47
2018-05-02T04:37:30.667Z,9.59
2018-05-02T04:38:31.091Z,9.58
2018-05-02T04:39:31.516Z,9.66
2018-05-02T04:40:31.947Z,9.73
2018-05-02T04:41:32.369Z,9.84
2018-05-02T04:42:32.799Z,9.86
2018-05-02T04:43:33.220Z,9.94
2018-05-02T04:44:33.650Z,9.94
2018-05-02T04:45:34.084Z,9.94
2018-05-02T04:46:34.508Z,10.07
2018-05-02T04:47:34.934Z,10.12
2018-05-02T04:48:35.356Z,10.16
2018-05-02T04:49:35.784Z,10.16
2018-05-02T04:50:36.213Z,10.19
2018-05-02T04:51:36.648Z,10.28
2018-05-02T04:52:37.076Z,10.17
2018-05-02T04:53:37.496Z,10.16
2018-05-02T04:54:37.920Z,10.26
2018-05-02T04:55:38.350Z,10.16
2018-05-02T04:56:38.777Z,10.17
2018-05-02T04:57:39.204Z,10.26
2018-05-02T04:58:39.630Z,10.16
2018-05-02T04:59:40.060Z,10.20
2018-05-02T05:00:40.480Z,10.19
2018-05-02T05:01:40.921Z,10.20
2018-05-02T05:02:41.344Z,10.16
2018-05-02T05:03:41.770Z,10.22
2018-05-02T05:04:42.205Z,10.31
2018-05-02T05:05:42.623Z,10.31
2018-05-02T05:06:43.053Z,10.35
2018-05-02T05:07:43.478Z,10.33
2018-05-02T05:08:43.904Z,10.49
2018-05-02T05:09:44.334Z,10.42
2018-05-02T05:10:44.756Z,10.44
2018-05-02T05:11:45.196Z,10.34
2018-05-02T05:12:45.623Z,10.35
2018-05-02T05:13:46.049Z,10.44
2018-05-02T05:14:46.470Z,10.46
2018-05-02T05:15:46.908Z,10.42
2018-05-02T05:16:47.323Z,10.46
2018-05-02T05:17:47.760Z,10.57
2018-05-02T05:18:48.183Z,10.67
2018-05-02T05:19:48.608Z,10.76
2018-05-02T05:20:49.039Z,10.74
2018-05-02T05:21:49.514Z,10.82
2018-05-02T05:22:49.900Z,10.75
2018-05-02T05:23:50.322Z,10.76
2018-05-02T05:24:50.748Z,10.94
2018-05-02T05:25:51.172Z,11.10
2018-05-02T05:26:51.758Z,11.08
2018-05-02T05:27:52.046Z,11.18
2018-05-02T05:28:52.461Z,11.33
2018-05-02T05:29:52.895Z,11.47
2018-05-02T05:30:53.423Z,11.54
2018-05-02T05:31:53.743Z,11.63
2018-05-02T05:32:54.178Z,11.77
2018-05-02T05:33:54.600Z,11.73
2018-05-02T05:34:55.033Z,11.86
2018-05-02T05:35:55.464Z,11.91
2018-05-02T05:36:55.896Z,12.00
2018-05-02T05:37:56.324Z,12.06
2018-05-02T05:38:56.749Z,12.07
2018-05-02T05:39:57.186Z,11.99
2018-05-02T05:40:57.605Z,11.95
2018-05-02T05:41:58.035Z,12.03
2018-05-02T05:42:58.469Z,12.21
2018-05-02T05:43:58.897Z,12.35
2018-05-02T05:44:59.326Z,12.64
2018-05-02T05:45:59.771Z,12.61
2018-05-02T05:47:00.192Z,12.67
2018-05-02T05:48:00.623Z,12.86
2018-05-02T05:49:01.046Z,13.05
2018-05-02T05:50:01.486Z,13.27
2018-05-02T05:51:01.904Z,13.19
2018-05-02T05:52:02.345Z,12.87
2018-05-02T05:53:02.772Z,12.72
2018-05-02T05:54:03.281Z,13.00
2018-05-02T05:55:03.632Z,12.93
2018-05-02T05:56:04.061Z,12.95
2018-05-02T05:57:04.489Z,13.19
2018-05-02T05:58:04.920Z,13.31
2018-05-02T05:59:05.358Z,13.30
2018-05-02T06:00:05.788Z,13.35
2018-05-02T06:01:06.214Z,13.47
2018-05-02T06:02:06.782Z,13.54
2018-05-02T06:03:07.081Z,13.47
2018-05-02T06:04:07.510Z,13.50
2018-05-02T06:05:07.981Z,13.39
2018-05-02T06:06:08.385Z,13.46
2018-05-02T06:07:08.827Z,13.52
2018-05-02T06:08:09.239Z,13.39
2018-05-02T06:10:56.047Z,13.38
2018-05-02T06:13:42.638Z,13.56
2018-05-02T06:14:43.063Z,13.46
2018-05-02T06:20:15.145Z,13.68
2018-05-02T06:21:15.568Z,13.74
2018-05-02T06:23:10.142Z,13.63
2018-05-02T06:24:10.566Z,13.65
2018-05-02T06:26:06.206Z,13.70
2018-05-02T06:27:06.562Z,13.65
2018-05-02T06:29:02.123Z,13.90
2018-05-02T06:30:02.548Z,13.93
2018-05-02T06:31:57.194Z,13.93
2018-05-02T06:32:57.552Z,13.97
2018-05-02T06:34:52.106Z,14.30
2018-05-02T06:35:52.575Z,14.32
2018-05-02T06:37:47.144Z,14.33
2018-05-02T06:38:47.557Z,14.50
2018-05-02T06:40:42.113Z,14.73
2018-05-02T06:41:42.536Z,14.70
2018-05-02T06:42:43.016Z,14.86
2018-05-02T06:43:43.405Z,14.89
2018-05-02T06:44:43.896Z,15.02
2018-05-02T06:45:44.273Z,15.27
2018-05-02T06:46:44.812Z,15.24
2018-05-02T06:47:45.158Z,15.39
2018-05-02T06:48:45.576Z,15.47
2018-05-02T06:49:46.019Z,15.57
2018-05-02T06:50:46.450Z,15.80
2018-05-02T06:51:46.884Z,15.65
2018-05-02T06:52:47.332Z,15.94
2018-05-02T06:53:47.757Z,16.17
2018-05-02T06:54:48.277Z,16.12
2018-05-02T06:55:48.623Z,16.24
2018-05-02T06:56:49.066Z,16.26
2018-05-02T06:57:49.500Z,16.31
2018-05-02T06:58:49.938Z,16.47
2018-05-02T06:59:50.369Z,16.60
2018-05-02T07:00:50.893Z,16.64
2018-05-02T07:01:51.251Z,16.57
2018-05-02T07:02:51.681Z,16.53
2018-05-02T07:03:52.124Z,16.64
2018-05-02T07:04:52.618Z,16.47
2018-05-02T07:05:53.000Z,16.20
2018-05-02T07:06:53.436Z,16.35
2018-05-02T07:07:53.873Z,16.35
2018-05-02T07:08:54.309Z,16.42
2018-05-02T07:09:54.745Z,16.53
2018-05-02T07:10:55.196Z,16.46
2018-05-02T07:11:55.621Z,16.41
2018-05-02T07:12:56.064Z,16.75
2018-05-02T07:13:56.498Z,16.83
2018-05-02T07:14:56.938Z,17.09
2018-05-02T07:15:57.381Z,17.27
2018-05-02T07:16:57.817Z,17.20
2018-05-02T07:17:58.273Z,17.08
2018-05-02T07:18:58.700Z,16.76
2018-05-02T07:19:59.146Z,16.23
2018-05-02T07:20:59.586Z,15.82
2018-05-02T07:22:00.017Z,15.47
2018-05-02T07:23:00.458Z,15.47
2018-05-02T07:24:00.933Z,15.36
2018-05-02T07:28:09.956Z,15.46
2018-05-02T07:29:10.383Z,15.49
2018-05-02T07:31:04.967Z,15.31
2018-05-02T07:32:05.405Z,15.24
2018-05-02T07:33:59.981Z,15.37
2018-05-02T07:35:00.421Z,15.40
2018-05-02T07:36:54.986Z,15.42
2018-05-02T07:37:55.423Z,15.37
2018-05-02T07:39:50.012Z,15.33
2018-05-02T07:40:50.439Z,15.35
2018-05-02T07:42:45.028Z,15.43
2018-05-02T07:43:45.471Z,15.62
2018-05-02T07:45:40.056Z,16.04
2018-05-02T07:46:40.493Z,16.38
2018-05-02T07:48:39.118Z,16.42
2018-05-02T07:49:39.472Z,16.09
2018-05-02T07:50:39.909Z,16.24
2018-05-02T07:51:40.351Z,16.26
2018-05-02T07:52:40.789Z,16.43
2018-05-02T07:53:41.234Z,16.71
2018-05-02T07:54:41.674Z,16.93
2018-05-02T07:55:42.108Z,17.08
2018-05-02T07:56:42.644Z,16.86
2018-05-02T07:57:42.994Z,16.39
2018-05-02T07:58:43.433Z,16.61
2018-05-02T07:59:43.877Z,16.91
2018-05-02T08:00:44.316Z,17.08
2018-05-02T08:01:44.753Z,17.27
2018-05-02T08:02:45.200Z,17.39
2018-05-02T08:03:45.639Z,17.63
2018-05-02T08:04:46.088Z,17.82
2018-05-02T08:05:46.524Z,18.08
2018-05-02T08:06:46.968Z,18.11
2018-05-02T08:07:47.410Z,18.38
2018-05-02T08:08:47.850Z,18.70
2018-05-02T08:09:48.297Z,18.75
2018-05-02T08:10:48.742Z,18.95
2018-05-02T08:11:49.186Z,18.62
2018-05-02T08:12:49.630Z,18.73
2018-05-02T08:13:50.094Z,18.43
2018-05-02T08:14:50.522Z,18.59
2018-05-02T08:15:50.963Z,18.89
2018-05-02T08:16:51.410Z,19.31
2018-05-02T08:17:51.946Z,19.24
2018-05-02T08:18:52.314Z,19.33
2018-05-02T08:19:52.754Z,19.70
2018-05-02T08:20:53.198Z,19.86
2018-05-02T08:21:53.640Z,20.21
2018-05-02T08:22:54.092Z,20.28
2018-05-02T08:23:54.538Z,20.58
2018-05-02T08:24:54.985Z,20.59
2018-05-02T08:25:55.437Z,20.77
2018-05-02T08:26:55.880Z,20.50
2018-05-02T08:27:56.330Z,20.10
2018-05-02T08:28:56.780Z,20.90
2018-05-02T08:29:57.225Z,21.12
2018-05-02T08:30:57.675Z,21.00
2018-05-02T08:31:58.127Z,21.25
2018-05-02T08:32:58.639Z,21.11
2018-05-02T08:33:59.028Z,20.96
2018-05-02T08:34:59.478Z,20.72
2018-05-02T08:35:59.927Z,21.05
2018-05-02T08:37:00.383Z,20.96
2018-05-02T08:38:00.822Z,20.82
2018-05-02T08:39:01.270Z,20.02
2018-05-02T08:40:01.723Z,20.40
2018-05-02T08:41:02.207Z,20.81
2018-05-02T08:42:02.618Z,20.74
2018-05-02T08:43:03.098Z,20.81
2018-05-02T08:44:03.529Z,21.22
2018-05-02T08:45:03.980Z,21.67
2018-05-02T08:46:04.421Z,21.85
2018-05-02T08:47:04.887Z,21.61
2018-05-02T08:48:05.371Z,21.96
2018-05-02T08:49:05.771Z,22.04
2018-05-02T08:50:06.227Z,22.11
2018-05-02T08:51:06.680Z,21.61
2018-05-02T08:52:07.127Z,21.20
2018-05-02T08:53:07.586Z,20.87
2018-05-02T08:54:08.029Z,20.52
2018-05-02T08:55:08.477Z,20.66
2018-05-02T08:56:08.948Z,21.14
2018-05-02T08:57:09.416Z,21.48
2018-05-02T08:58:09.840Z,21.12
2018-05-02T08:59:10.274Z,20.74
2018-05-02T09:00:10.731Z,20.21
2018-05-02T09:01:11.187Z,18.88
2018-05-02T09:02:11.623Z,18.70
2018-05-02T09:03:12.079Z,18.98
2018-05-02T09:04:12.531Z,19.19
2018-05-02T09:05:12.977Z,19.27
2018-05-02T09:06:13.410Z,19.26
2018-05-02T09:07:13.862Z,19.14
2018-05-02T09:08:14.305Z,19.00
2018-05-02T09:09:14.749Z,18.65
2018-05-02T09:10:15.194Z,18.23
2018-05-02T09:11:15.640Z,17.95
2018-05-02T09:12:16.077Z,17.79
2018-05-02T09:13:16.523Z,17.44
2018-05-02T09:14:16.964Z,17.29
2018-05-02T09:15:17.411Z,17.23
2018-05-02T09:16:17.847Z,16.94
2018-05-02T09:17:18.290Z,16.68
2018-05-02T09:18:18.730Z,16.69
2018-05-02T09:19:19.185Z,16.50
2018-05-02T09:20:19.607Z,16.47
2018-05-02T09:21:20.050Z,16.46
2018-05-02T09:22:20.487Z,16.33
2018-05-02T09:23:20.970Z,16.39
2018-05-02T09:24:21.366Z,16.20
2018-05-02T09:25:21.803Z,16.01
2018-05-02T09:26:22.239Z,16.04
2018-05-02T09:27:22.668Z,15.97
2018-05-02T09:28:23.131Z,16.00
2018-05-02T09:29:23.576Z,15.83
2018-05-02T09:30:23.978Z,15.58
2018-05-02T09:31:24.424Z,15.49
2018-05-02T09:32:24.856Z,15.44
2018-05-02T09:33:25.303Z,15.61
2018-05-02T09:34:25.742Z,15.61
2018-05-02T09:35:26.158Z,15.75
2018-05-02T09:36:26.600Z,15.73
2018-05-02T09:37:27.043Z,15.67
2018-05-02T09:38:27.460Z,15.52
2018-05-02T09:39:27.896Z,15.44
2018-05-02T09:40:28.356Z,15.40
2018-05-02T09:41:28.769Z,15.40
2018-05-02T09:42:29.199Z,15.35
2018-05-02T09:43:29.636Z,15.43
2018-05-02T09:44:30.071Z,15.44
2018-05-02T09:45:30.516Z,15.43
2018-05-02T09:46:30.937Z,15.51
2018-05-02T09:47:31.365Z,15.57
2018-05-02T09:48:31.801Z,15.61
2018-05-02T09:49:32.240Z,15.46
2018-05-02T09:50:32.667Z,15.59
2018-05-02T09:51:33.113Z,15.67
2018-05-02T09:52:33.587Z,15.94
2018-05-02T09:53:33.966Z,15.92
2018-05-02T09:54:34.408Z,15.65
2018-05-02T09:55:34.857Z,15.94
2018-05-02T09:56:35.270Z,16.02
2018-05-02T09:57:35.741Z,16.20
2018-05-02T09:58:36.145Z,16.00
2018-05-02T09:59:36.576Z,16.01
2018-05-02T10:00:37.015Z,16.16
2018-05-02T10:01:37.453Z,16.04
2018-05-02T10:02:37.880Z,16.00
2018-05-02T10:03:40.907Z,16.16
2018-05-02T10:04:38.757Z,16.23
2018-05-02T10:05:39.185Z,16.23
2018-05-02T10:06:39.617Z,16.24
2018-05-02T10:07:40.081Z,16.28
2018-05-02T10:08:42.383Z,16.35
2018-05-02T10:09:40.917Z,16.42
2018-05-02T10:10:41.401Z,16.28
2018-05-02T10:11:41.804Z,16.46
2018-05-02T10:12:42.272Z,16.46
2018-05-02T10:13:42.685Z,16.08
2018-05-02T10:14:43.121Z,16.15
2018-05-02T10:15:43.548Z,16.38
2018-05-02T10:16:43.990Z,16.39
2018-05-02T10:17:44.408Z,16.20
2018-05-02T10:18:44.862Z,16.01
2018-05-02T10:19:45.312Z,16.02
2018-05-02T10:20:45.760Z,16.39
2018-05-02T10:21:46.157Z,16.50
2018-05-02T10:22:46.588Z,16.39
2018-05-02T10:23:47.026Z,16.29
2018-05-02T10:24:47.504Z,16.21
2018-05-02T10:25:47.896Z,16.24
2018-05-02T10:26:48.327Z,16.38
2018-05-02T10:27:48.779Z,16.31
2018-05-02T10:28:49.207Z,16.32
2018-05-02T10:29:49.669Z,16.49
2018-05-02T10:30:50.076Z,16.46
2018-05-02T10:31:50.511Z,16.39
2018-05-02T10:32:50.965Z,16.31
2018-05-02T10:33:51.379Z,16.15
2018-05-02T10:34:51.827Z,16.39
2018-05-02T10:35:52.248Z,16.33
2018-05-02T10:36:52.725Z,16.43
2018-05-02T10:37:53.165Z,16.50
2018-05-02T10:38:53.563Z,16.49
2018-05-02T10:39:53.994Z,16.61
2018-05-02T10:40:54.426Z,16.68
2018-05-02T10:41:54.871Z,16.51
2018-05-02T10:42:55.334Z,16.41
2018-05-02T10:43:55.742Z,16.29
2018-05-02T10:44:56.179Z,16.47
2018-05-02T10:45:56.613Z,16.53
2018-05-02T10:46:57.044Z,16.57
2018-05-02T10:47:57.486Z,16.50
2018-05-02T10:48:57.916Z,16.57
2018-05-02T10:49:58.359Z,16.51
2018-05-02T10:50:58.789Z,16.31
2018-05-02T10:51:59.223Z,16.46
2018-05-02T10:52:59.657Z,16.60
2018-05-02T10:54:00.103Z,16.56
2018-05-02T10:55:07.413Z,16.60
2018-05-02T10:56:01.004Z,16.61
2018-05-02T10:57:01.410Z,16.60
2018-05-02T10:58:01.840Z,16.66
2018-05-02T10:59:02.284Z,16.69
2018-05-02T11:00:02.710Z,16.75
2018-05-02T11:01:03.151Z,16.83
2018-05-02T11:02:03.625Z,16.49
2018-05-02T11:03:04.031Z,16.68
2018-05-02T11:04:19.420Z,16.64
2018-05-02T11:05:04.896Z,16.54
2018-05-02T11:06:05.334Z,16.43
2018-05-02T11:07:05.767Z,16.51
2018-05-02T11:08:06.200Z,16.46
2018-05-02T11:09:06.636Z,16.49
2018-05-02T11:10:07.074Z,16.46
2018-05-02T11:11:07.562Z,16.42
2018-05-02T11:12:07.947Z,16.50
2018-05-02T11:13:08.401Z,16.54
2018-05-02T11:14:08.818Z,16.42
2018-05-02T11:15:09.313Z,16.31
2018-05-02T11:16:09.681Z,15.88
2018-05-02T11:17:10.171Z,16.20
2018-05-02T11:18:10.565Z,16.23
2018-05-02T11:19:10.998Z,16.35
2018-05-02T11:20:11.440Z,16.29
2018-05-02T11:21:11.937Z,16.28
2018-05-02T11:22:12.291Z,16.23
2018-05-02T11:23:12.743Z,16.26
2018-05-02T11:24:15.919Z,16.26
2018-05-02T11:25:13.604Z,16.28
2018-05-02T11:26:14.040Z,16.38
2018-05-02T11:27:14.478Z,16.13
2018-05-02T11:28:14.929Z,16.28
2018-05-02T11:29:15.344Z,16.42
2018-05-02T11:30:15.776Z,16.42
2018-05-02T11:31:16.216Z,16.47
2018-05-02T11:32:16.657Z,16.46
2018-05-02T11:33:17.117Z,16.51
2018-05-02T11:34:17.529Z,16.57
2018-05-02T11:35:17.954Z,16.60
2018-05-02T11:36:18.395Z,16.71
2018-05-02T11:37:18.827Z,16.49
2018-05-02T11:38:19.263Z,16.49
2018-05-02T11:39:19.723Z,16.23
2018-05-02T11:40:20.133Z,16.05
2018-05-02T11:41:20.559Z,15.97
2018-05-02T11:42:21.015Z,16.04
2018-05-02T11:43:21.442Z,16.20
2018-05-02T11:44:21.879Z,16.20
2018-05-02T11:45:22.302Z,16.28
2018-05-02T11:46:22.746Z,16.32
2018-05-02T11:47:23.181Z,16.47
2018-05-02T11:48:23.607Z,16.47
2018-05-02T11:49:24.050Z,16.38
2018-05-02T11:50:24.496Z,16.09
2018-05-02T11:51:24.915Z,16.00
2018-05-02T11:52:25.349Z,15.97
2018-05-02T11:53:25.841Z,16.00
2018-05-02T11:54:26.222Z,15.91
2018-05-02T11:55:26.673Z,16.09
2018-05-02T11:56:27.094Z,15.95
2018-05-02T11:57:27.530Z,16.05
2018-05-02T11:58:27.965Z,16.24
2018-05-02T11:59:28.390Z,16.13
2018-05-02T12:00:28.832Z,16.16
2018-05-02T12:01:29.273Z,16.08
2018-05-02T12:02:29.743Z,15.94
2018-05-02T12:03:30.164Z,15.80
2018-05-02T12:04:30.596Z,15.90
2018-05-02T12:05:31.020Z,15.97
2018-05-02T12:06:31.466Z,16.05
2018-05-02T12:07:31.891Z,16.05
2018-05-02T12:08:32.322Z,15.97
2018-05-02T12:09:32.739Z,15.91
2018-05-02T12:10:33.275Z,15.83
2018-05-02T12:11:33.607Z,15.68
2018-05-02T12:12:34.075Z,15.64
2018-05-02T12:13:34.475Z,15.58
2018-05-02T12:14:34.914Z,15.55
2018-05-02T12:15:35.340Z,15.65
2018-05-02T12:16:35.787Z,15.72
2018-05-02T12:17:36.207Z,15.59
2018-05-02T12:18:36.644Z,15.58
2018-05-02T12:19:37.092Z,15.54
2018-05-02T12:20:37.513Z,15.52
2018-05-02T12:21:37.947Z,15.59
2018-05-02T12:22:38.385Z,15.62
2018-05-02T12:23:38.895Z,15.61
2018-05-02T12:24:39.247Z,15.65
2018-05-02T12:25:39.685Z,15.62
2018-05-02T12:26:40.113Z,15.68
2018-05-02T12:27:40.613Z,15.67
2018-05-02T12:28:40.993Z,15.57
2018-05-02T12:29:41.418Z,15.72
2018-05-02T12:30:41.847Z,15.67
2018-05-02T12:31:42.297Z,15.67
2018-05-02T12:32:42.715Z,15.76
2018-05-02T12:33:43.150Z,15.76
2018-05-02T12:34:43.587Z,15.64
2018-05-02T12:35:44.025Z,15.57
2018-05-02T12:36:44.451Z,15.65
2018-05-02T12:37:44.892Z,15.70
2018-05-02T12:38:45.321Z,15.65
2018-05-02T12:39:45.751Z,15.67
2018-05-02T12:40:46.188Z,15.57
2018-05-02T12:41:46.633Z,15.58
2018-05-02T12:42:47.061Z,15.55
2018-05-02T12:43:47.497Z,15.52
2018-05-02T12:44:47.920Z,15.44
2018-05-02T12:45:48.360Z,15.61
2018-05-02T12:46:48.795Z,15.55
2018-05-02T12:47:49.243Z,15.65
2018-05-02T12:48:49.660Z,15.75
2018-05-02T12:49:50.126Z,15.80
2018-05-02T12:50:50.527Z,15.65
2018-05-02T12:51:50.966Z,15.64
2018-05-02T12:52:51.389Z,15.58
2018-05-02T12:53:51.832Z,15.59
2018-05-02T12:54:52.262Z,15.54
2018-05-02T12:55:52.697Z,15.57
2018-05-02T12:56:53.123Z,15.75
2018-05-02T12:57:53.561Z,15.82
2018-05-02T12:58:53.996Z,15.73
2018-05-02T12:59:54.430Z,15.72
2018-05-02T13:00:54.866Z,15.65
2018-05-02T13:01:55.294Z,15.72
2018-05-02T13:02:55.730Z,15.64
2018-05-02T13:03:56.167Z,15.72
2018-05-02T13:04:56.609Z,15.61
2018-05-02T13:05:57.053Z,15.76
2018-05-02T13:06:57.470Z,15.75
2018-05-02T13:07:57.922Z,15.75
2018-05-02T13:08:58.340Z,15.64
2018-05-02T13:09:58.774Z,15.83
2018-05-02T13:10:59.228Z,15.88
2018-05-02T13:11:59.636Z,15.84
2018-05-02T13:13:00.077Z,15.97
2018-05-02T13:14:00.504Z,16.24
2018-05-02T13:15:00.946Z,16.33
2018-05-02T13:16:01.398Z,16.42
2018-05-02T13:17:01.815Z,16.47
2018-05-02T13:18:02.246Z,16.38
2018-05-02T13:19:02.680Z,16.50
2018-05-02T13:20:03.125Z,16.38
2018-05-02T13:21:03.566Z,16.29
2018-05-02T13:22:04.006Z,16.58
2018-05-02T13:23:04.431Z,16.64
2018-05-02T13:24:04.862Z,16.96
2018-05-02T13:25:05.307Z,17.06
2018-05-02T13:26:05.732Z,17.24
2018-05-02T13:27:06.182Z,17.23
2018-05-02T13:28:06.665Z,17.15